Time;durP1;ratioP1;P1;durP2;ratioP2;P2;SDS_P1;SDS_P2;PMS_P1;PMS_P2;Temp;Humidity;BMP_temperature;BMP_pressure;BME280_temperature;BME280_humidity;BME280_pressure;Samples;Min_cycle;Max_cycle;Signal;HPM_P1;HPM_P2
2023/10/22 00:04:06;;;;;;;5.85;3.13;;;;;;;-0.95;73.07;101464.03;10209892;29;20043;-86
2023/10/22 00:09:09;;;;;;;7.32;3.60;;;;;;;-0.95;72.45;101469.41;10211827;29;20528;-87
2023/10/22 00:14:11;;;;;;;5.07;3.28;;;;;;;-0.96;73.32;101460.50;10196896;29;20042;-86
2023/10/22 00:19:14;;;;;;;5.68;3.60;;;;;;;-0.97;72.67;101466.06;10197589;29;20050;-87
2023/10/22 00:24:16;;;;;;;7.05;3.58;;;;;;;-1.00;72.71;101453.81;10195995;29;20043;-86
2023/10/22 00:29:19;;;;;;;9.05;3.22;;;;;;;-1.01;73.51;101454.84;10208226;29;20451;-87
2023/10/22 00:34:21;;;;;;;5.95;3.55;;;;;;;-1.00;73.13;101464.59;10226621;29;20050;-86
2023/10/22 00:39:23;;;;;;;6.50;3.75;;;;;;;-0.97;73.14;101464.22;10148258;29;1175198;-87
2023/10/22 00:44:26;;;;;;;5.68;2.83;;;;;;;-0.91;73.20;101459.94;10212479;29;20040;-86
2023/10/22 00:49:29;;;;;;;5.72;2.88;;;;;;;-0.87;73.22;101457.69;10209311;29;20129;-87
2023/10/22 00:54:32;;;;;;;5.53;3.15;;;;;;;-0.84;72.65;101450.09;10211635;29;20059;-86
2023/10/22 00:59:37;;;;;;;6.22;3.30;;;;;;;-0.80;72.40;101445.16;10197750;29;20047;-86
2023/10/22 01:04:42;;;;;;;5.45;2.97;;;;;;;-0.84;72.69;101433.09;10214064;29;20511;-86
2023/10/22 01:09:45;;;;;;;4.80;3.10;;;;;;;-0.80;72.22;101437.06;10227057;29;20044;-86
2023/10/22 01:14:47;;;;;;;3.97;2.90;;;;;;;-0.78;72.16;101440.41;10228922;29;20242;-87
2023/10/22 01:19:52;;;;;;;5.20;2.85;;;;;;;-0.78;72.14;101430.47;10212600;29;20035;-86
2023/10/22 01:24:55;;;;;;;5.63;3.10;;;;;;;-0.83;72.79;101445.53;10175661;29;20419;-87
2023/10/22 01:29:57;;;;;;;5.68;3.15;;;;;;;-0.81;72.08;101443.50;10174972;29;20048;-87
2023/10/22 01:35:00;;;;;;;3.08;2.28;;;;;;;-0.82;72.36;101449.91;10197425;29;20043;-87
2023/10/22 01:40:03;;;;;;;4.05;2.72;;;;;;;-0.86;73.02;101432.44;10212389;29;20534;-87
2023/10/22 01:45:07;;;;;;;6.30;3.05;;;;;;;-0.94;73.48;101419.88;10212255;29;20050;-86
2023/10/22 01:50:12;;;;;;;6.00;3.30;;;;;;;-0.98;73.25;101416.75;10212409;29;20041;-86
2023/10/22 01:55:14;;;;;;;5.95;3.10;;;;;;;-0.96;73.04;101406.63;10212009;29;20168;-86
2023/10/22 02:00:19;;;;;;;4.22;3.05;;;;;;;-0.93;73.49;101408.09;10225296;29;20062;-87
2023/10/22 02:05:22;;;;;;;4.07;2.15;;;;;;;-0.87;73.31;101384.94;10227101;29;20076;-87
2023/10/22 02:10:24;;;;;;;4.78;2.85;;;;;;;-0.82;73.21;101379.84;10198647;29;20433;-88
2023/10/22 02:15:33;;;;;;;5.72;3.17;;;;;;;-0.80;73.14;101367.03;10195854;29;20131;-88
2023/10/22 02:20:36;;;;;;;5.68;2.72;;;;;;;-0.76;73.54;101363.75;10208284;29;20050;-88
2023/10/22 02:25:39;;;;;;;3.83;2.80;;;;;;;-0.85;73.90;101369.47;10220082;29;20043;-87
2023/10/22 02:30:42;;;;;;;5.28;3.08;;;;;;;-0.91;74.60;101354.84;10223196;29;20152;-87
2023/10/22 02:35:46;;;;;;;4.40;2.97;;;;;;;-0.98;74.97;101349.41;10225494;29;20067;-87
2023/10/22 02:40:49;;;;;;;5.70;3.05;;;;;;;-1.04;75.12;101358.25;10242125;29;20510;-85
2023/10/22 02:45:53;;;;;;;5.43;3.35;;;;;;;-1.10;75.57;101331.22;10226100;29;20047;-86
2023/10/22 02:50:55;;;;;;;5.70;3.40;;;;;;;-1.13;75.81;101339.66;10202076;29;20043;-86
2023/10/22 02:56:01;;;;;;;5.68;2.97;;;;;;;-1.14;76.67;101325.38;10221392;29;20051;-87
2023/10/22 03:01:08;;;;;;;4.60;3.17;;;;;;;-1.20;76.01;101328.81;10170922;29;20048;-87
2023/10/22 03:06:13;;;;;;;4.65;3.22;;;;;;;-1.25;76.96;101307.81;10221292;29;20510;-87
2023/10/22 03:11:18;;;;;;;4.53;3.03;;;;;;;-1.24;76.86;101296.03;10210475;29;20051;-86
2023/10/22 03:16:22;;;;;;;4.22;2.40;;;;;;;-1.21;76.68;101297.53;10225848;29;20054;-87
2023/10/22 03:21:25;;;;;;;4.28;2.35;;;;;;;-1.25;77.40;101298.91;10225556;29;20052;-86
2023/10/22 03:26:29;;;;;;;5.05;2.72;;;;;;;-1.28;77.57;101291.22;10224814;29;20048;-87
2023/10/22 03:31:33;;;;;;;3.97;2.53;;;;;;;-1.20;77.49;101274.97;10226353;29;20418;-87
2023/10/22 03:36:39;;;;;;;5.30;2.40;;;;;;;-1.16;77.51;101268.16;10185890;29;20052;-86
2023/10/22 03:41:42;;;;;;;4.25;2.40;;;;;;;-1.14;77.71;101270.69;10233020;29;20056;-86
2023/10/22 03:46:48;;;;;;;4.70;2.50;;;;;;;-1.12;78.02;101268.63;10206175;29;20048;-87
2023/10/22 03:51:51;;;;;;;3.63;2.55;;;;;;;-1.13;77.69;101275.88;10228587;29;20040;-87
2023/10/22 03:56:53;;;;;;;3.45;2.75;;;;;;;-1.22;78.79;101279.69;10245103;29;20050;-86
2023/10/22 04:01:55;;;;;;;4.30;2.55;;;;;;;-1.31;78.62;101275.44;10210082;29;20067;-86
2023/10/22 04:06:58;;;;;;;5.90;2.95;;;;;;;-1.31;79.07;101268.19;10228325;29;20059;-87
2023/10/22 04:12:01;;;;;;;5.60;2.75;;;;;;;-1.26;79.34;101256.84;10236076;29;20047;-87
2023/10/22 04:17:03;;;;;;;4.03;2.10;;;;;;;-1.30;79.78;101252.88;10223516;29;20044;-87
2023/10/22 04:22:07;;;;;;;3.20;2.25;;;;;;;-1.35;80.02;101244.53;10227715;29;20044;-86
2023/10/22 04:27:11;;;;;;;3.10;2.40;;;;;;;-1.46;80.30;101231.53;10247870;29;20040;-87
2023/10/22 04:32:13;;;;;;;5.50;2.70;;;;;;;-1.53;81.34;101236.84;10214946;29;20039;-86
2023/10/22 04:37:18;;;;;;;5.82;3.10;;;;;;;-1.49;81.29;101219.31;10212056;29;20051;-86
2023/10/22 04:42:21;;;;;;;4.30;3.05;;;;;;;-1.50;81.29;101219.50;10191827;29;20036;-87
2023/10/22 04:47:25;;;;;;;3.33;2.05;;;;;;;-1.49;81.52;101205.00;10229176;29;20055;-87
2023/10/22 04:52:31;;;;;;;5.05;2.90;;;;;;;-1.42;81.88;101208.59;10245575;29;20047;-87
2023/10/22 04:57:34;;;;;;;4.05;2.90;;;;;;;-1.39;81.21;101217.16;10223546;29;20043;-87
2023/10/22 05:02:37;;;;;;;7.45;2.95;;;;;;;-1.42;82.13;101205.91;10239170;29;20054;-86
2023/10/22 05:07:40;;;;;;;6.45;3.33;;;;;;;-1.38;81.76;101212.63;10202756;29;20534;-87
2023/10/22 05:12:43;;;;;;;3.92;2.88;;;;;;;-1.37;81.75;101209.72;10208357;29;20051;-88
2023/10/22 05:17:46;;;;;;;6.40;3.25;;;;;;;-1.36;81.74;101194.41;10228622;29;20051;-87
2023/10/22 05:22:49;;;;;;;5.93;3.28;;;;;;;-1.34;81.84;101197.75;10259054;29;20055;-87
2023/10/22 05:27:52;;;;;;;5.60;3.50;;;;;;;-1.32;81.69;101211.84;10244933;29;20518;-87
2023/10/22 05:32:55;;;;;;;4.85;3.45;;;;;;;-1.22;82.06;101218.56;10240216;29;20437;-90
2023/10/22 05:37:57;;;;;;;5.30;2.85;;;;;;;-1.35;82.20;101209.53;10212230;29;20054;-87
2023/10/22 05:42:59;;;;;;;6.35;2.38;;;;;;;-1.33;82.83;101194.03;10225931;29;20050;-87
2023/10/22 05:48:02;;;;;;;5.00;3.20;;;;;;;-1.31;82.31;101224.28;10224932;29;20643;-87
2023/10/22 05:53:04;;;;;;;5.03;2.60;;;;;;;-1.48;82.41;101225.53;10239939;29;20039;-87
2023/10/22 05:58:06;;;;;;;6.47;3.42;;;;;;;-1.52;83.22;101209.75;10234988;29;20040;-87
2023/10/22 06:03:08;;;;;;;3.63;2.70;;;;;;;-1.58;83.43;101207.78;10201786;29;20074;-87
2023/10/22 06:08:11;;;;;;;6.70;2.88;;;;;;;-1.48;83.69;101198.59;10244750;29;20047;-87
2023/10/22 06:13:13;;;;;;;3.20;1.45;;;;;;;-1.49;83.54;101183.47;10224679;29;20345;-87
2023/10/22 06:18:15;;;;;;;5.60;2.78;;;;;;;-1.48;83.88;101169.00;10223147;29;20055;-87
2023/10/22 06:23:19;;;;;;;5.53;3.03;;;;;;;-1.44;83.59;101183.75;10242354;29;20515;-87
2023/10/22 06:28:21;;;;;;;2.92;1.98;;;;;;;-1.43;83.28;101177.34;10226208;29;20040;-87
2023/10/22 06:33:23;;;;;;;4.45;2.60;;;;;;;-1.25;83.37;101185.81;10225814;29;20515;-86
2023/10/22 06:38:25;;;;;;;3.35;2.00;;;;;;;-1.25;83.18;101161.59;10268136;29;20059;-87
2023/10/22 06:43:27;;;;;;;5.43;2.40;;;;;;;-1.18;83.09;101178.66;10225782;29;20039;-87
2023/10/22 06:48:30;;;;;;;7.25;2.72;;;;;;;-1.14;82.90;101177.25;10240547;29;20044;-87
2023/10/22 06:53:32;;;;;;;7.40;2.70;;;;;;;-1.04;82.73;101183.19;10231970;29;20051;-87
2023/10/22 06:58:35;;;;;;;3.30;2.60;;;;;;;-0.89;82.46;101190.34;10209642;29;20574;-87
2023/10/22 07:03:40;;;;;;;5.75;2.67;;;;;;;-0.66;82.20;101174.81;10245899;29;20071;-87
2023/10/22 07:08:45;;;;;;;5.25;2.80;;;;;;;-0.58;81.26;101174.66;10222009;29;20043;-87
2023/10/22 07:13:47;;;;;;;4.60;2.67;;;;;;;-0.56;81.48;101161.81;10219762;29;20040;-87
2023/10/22 07:18:50;;;;;;;4.97;3.20;;;;;;;-0.47;81.25;101157.13;10224006;29;20047;-86
2023/10/22 07:23:52;;;;;;;7.35;3.05;;;;;;;-0.37;81.24;101139.56;10249244;29;20043;-86
2023/10/22 07:28:54;;;;;;;7.15;2.67;;;;;;;-0.28;80.57;101140.25;10250399;29;20526;-87
2023/10/22 07:33:56;;;;;;;6.93;3.42;;;;;;;-0.21;80.54;101124.94;10246930;29;20473;-87
2023/10/22 07:38:58;;;;;;;7.10;2.83;;;;;;;-0.21;80.63;101130.31;10215428;29;20059;-86
2023/10/22 07:44:01;;;;;;;8.05;3.47;;;;;;;-0.12;80.57;101120.22;10242656;29;20044;-87
2023/10/22 07:49:03;;;;;;;5.53;3.08;;;;;;;-0.22;80.53;101122.44;10228315;29;20050;-87
2023/10/22 07:54:05;;;;;;;4.53;3.50;;;;;;;-0.12;80.72;101131.84;10243027;29;20044;-87
2023/10/22 07:59:07;;;;;;;5.35;3.15;;;;;;;0.06;80.53;101117.81;10196982;29;20050;-87
2023/10/22 08:04:10;;;;;;;6.50;3.70;;;;;;;-0.01;80.31;101125.03;10214371;29;20046;-87
2023/10/22 08:09:12;;;;;;;6.50;3.53;;;;;;;0.09;80.16;101105.78;10242957;29;20043;-86
2023/10/22 08:14:14;;;;;;;5.97;3.30;;;;;;;0.05;80.48;101099.16;10247128;29;20055;-87
2023/10/22 08:19:17;;;;;;;5.80;3.80;;;;;;;0.24;80.18;101080.31;10246702;29;20054;-87
2023/10/22 08:24:19;;;;;;;5.57;3.28;;;;;;;0.49;79.70;101059.00;10248777;29;20512;-87
2023/10/22 08:29:21;;;;;;;6.35;3.80;;;;;;;0.82;78.32;101050.09;10208729;29;20039;-87
2023/10/22 08:34:24;;;;;;;8.65;3.67;;;;;;;0.66;78.59;101053.19;10245334;29;20082;-86
2023/10/22 08:39:27;;;;;;;5.07;3.80;;;;;;;0.60;78.47;101055.69;10228783;29;20423;-87
2023/10/22 08:44:32;;;;;;;6.25;3.10;;;;;;;0.52;78.44;101037.00;10212897;29;20510;-87
2023/10/22 08:49:34;;;;;;;5.28;3.78;;;;;;;0.58;79.28;101046.16;10189204;29;20059;-87
2023/10/22 08:54:37;;;;;;;6.78;2.80;;;;;;;0.62;79.29;101055.50;10245392;29;20036;-87
2023/10/22 08:59:39;;;;;;;9.93;3.63;;;;;;;1.00;78.47;101052.19;10211470;29;20529;-87
2023/10/22 09:04:41;;;;;;;8.15;3.25;;;;;;;1.08;78.23;101038.47;10224607;29;20032;-87
2023/10/22 09:09:43;;;;;;;5.70;3.85;;;;;;;0.89;78.16;101035.56;10228030;29;20070;-87
2023/10/22 09:14:46;;;;;;;6.63;3.60;;;;;;;0.80;78.78;101036.81;10225423;29;20046;-86
2023/10/22 09:19:48;;;;;;;6.72;3.83;;;;;;;0.85;79.17;101044.28;10242522;29;20059;-87
2023/10/22 09:24:57;;;;;;;6.35;3.53;;;;;;;0.97;78.78;101036.41;10236512;29;20043;-88
2023/10/22 09:30:00;;;;;;;5.55;2.97;;;;;;;1.04;78.34;101032.66;10239518;29;20043;-88
2023/10/22 09:35:12;;;;;;;6.95;4.00;;;;;;;1.10;78.12;101025.59;10212836;28;20043;-88
2023/10/22 09:40:19;;;;;;;5.15;3.25;;;;;;;1.16;78.17;101008.50;10238701;29;20051;-88
2023/10/22 09:45:23;;;;;;;6.45;3.45;;;;;;;1.07;78.41;100997.13;10192645;29;20511;-89
2023/10/22 09:50:27;;;;;;;6.82;3.70;;;;;;;1.20;78.18;101004.34;10208332;29;20046;-88
2023/10/22 09:55:31;;;;;;;7.72;3.90;;;;;;;1.30;78.18;101003.94;10207057;29;20047;-87
2023/10/22 10:00:34;;;;;;;8.48;3.78;;;;;;;1.35;78.33;100991.41;10238790;29;20035;-88
2023/10/22 10:05:37;;;;;;;6.40;3.45;;;;;;;1.17;78.69;100983.97;10238980;29;20406;-88
2023/10/22 10:10:41;;;;;;;6.28;2.90;;;;;;;1.25;78.62;100987.50;10226371;29;20054;-88
2023/10/22 10:15:58;;;;;;;8.38;3.53;;;;;;;1.27;78.61;100982.72;10224961;29;20043;-88
2023/10/22 10:21:21;;;;;;;;;;;;;;;1.18;78.45;100991.03;10238126;29;20050;-88
2023/10/22 10:26:30;;;;;;;6.80;3.50;;;;;;;1.17;78.98;100975.03;10221601;29;19922;-87
2023/10/22 10:31:32;;;;;;;5.53;3.63;;;;;;;1.29;79.26;100988.75;10191686;29;20039;-88
2023/10/22 10:36:35;;;;;;;6.82;4.47;;;;;;;1.41;79.00;100976.25;10250447;29;20074;-88
2023/10/22 10:41:53;;;;;;;7.13;3.47;;;;;;;1.28;78.79;100985.22;10225035;29;20054;-89
2023/10/22 10:47:15;;;;;;;;;;;;;;;1.23;78.97;100955.28;10244023;29;20548;-86
2023/10/22 10:52:18;;;;;;;7.10;3.90;;;;;;;1.24;78.87;100946.13;10177666;29;19929;-88
2023/10/22 10:57:35;;;;;;;6.82;3.67;;;;;;;1.27;79.40;100928.66;10233131;29;20047;-89
2023/10/22 11:02:42;;;;;;;6.20;3.63;;;;;;;1.23;80.22;100938.25;10240778;29;20070;-96
2023/10/22 11:07:45;;;;;;;7.30;4.35;;;;;;;1.31;79.05;100922.59;10249357;23;20051;-64
2023/10/22 11:12:49;;;;;;;10.48;4.20;;;;;;;1.29;79.47;100926.56;10260236;29;20043;-64
2023/10/22 11:18:00;;;;;;;8.93;4.80;;;;;;;1.25;79.46;100915.34;10278797;29;20054;-64
2023/10/22 11:23:02;;;;;;;6.82;3.75;;;;;;;1.37;79.48;100907.41;10266983;28;20043;-65
2023/10/22 11:28:05;;;;;;;8.10;4.35;;;;;;;1.53;78.59;100917.72;10254975;29;20039;-65
2023/10/22 11:33:13;;;;;;;9.38;4.93;;;;;;;1.45;78.40;100910.69;10245351;28;20066;-65
2023/10/22 11:38:21;;;;;;;7.43;4.10;;;;;;;1.51;78.76;100900.88;10266548;28;20585;-64
2023/10/22 11:43:24;;;;;;;9.30;4.57;;;;;;;1.57;78.60;100905.47;10287266;28;20053;-66
2023/10/22 11:48:27;;;;;;;10.43;4.85;;;;;;;1.59;78.27;100906.06;10286811;23;20527;-67
2023/10/22 11:53:42;;;;;;;5.75;3.42;;;;;;;1.56;78.84;100897.53;10276244;28;20043;-67
2023/10/22 11:58:55;;;;;;;8.82;4.22;;;;;;;1.68;78.50;100887.69;10277081;28;20047;-68
2023/10/22 12:04:03;;;;;;;7.15;4.43;;;;;;;1.62;78.20;100884.00;10248183;29;20053;-68
2023/10/22 12:09:05;;;;;;;6.43;4.38;;;;;;;1.68;78.74;100877.72;10253388;23;20071;-63
2023/10/22 12:14:07;;;;;;;5.85;3.58;;;;;;;1.87;78.52;100885.91;10245291;29;20515;-65
2023/10/22 12:19:10;;;;;;;6.95;3.95;;;;;;;1.79;78.22;100873.50;10256409;29;20039;-65
2023/10/22 12:24:12;;;;;;;5.72;3.15;;;;;;;1.78;78.40;100866.44;10250135;23;20052;-70
2023/10/22 12:29:14;;;;;;;9.85;4.22;;;;;;;1.72;78.50;100856.44;10239255;29;20040;-69
2023/10/22 12:34:17;;;;;;;8.55;4.40;;;;;;;1.89;79.04;100849.47;10241922;29;20055;-70
2023/10/22 12:39:21;;;;;;;7.35;4.78;;;;;;;1.76;78.24;100849.59;10195441;23;20162;-64
2023/10/22 12:44:24;;;;;;;10.55;4.35;;;;;;;1.76;79.17;100834.19;10201899;29;20404;-65
2023/10/22 12:49:38;;;;;;;8.43;5.15;;;;;;;1.70;79.42;100820.69;10183687;29;20123;-64
2023/10/22 12:54:42;;;;;;;11.07;5.13;;;;;;;1.81;79.29;100820.81;10269790;28;20051;-68
2023/10/22 12:59:45;;;;;;;7.80;4.38;;;;;;;1.86;79.39;100803.09;10258155;29;20396;-67
2023/10/22 13:04:48;;;;;;;5.00;3.22;;;;;;;1.81;79.47;100812.69;10278009;23;20043;-75
2023/10/22 13:09:50;;;;;;;7.55;5.05;;;;;;;1.93;79.05;100791.19;10290754;28;20666;-75
2023/10/22 13:14:53;;;;;;;9.10;5.22;;;;;;;1.95;78.79;100805.31;10291688;28;20043;-79
2023/10/22 13:19:55;;;;;;;9.63;4.55;;;;;;;1.88;78.98;100791.00;10320280;23;20502;-72
2023/10/22 13:24:57;;;;;;;14.30;5.05;;;;;;;1.89;79.49;100789.94;10278616;29;20047;-70
2023/10/22 13:30:00;;;;;;;9.63;4.53;;;;;;;1.91;79.47;100774.34;10278310;28;20046;-71
2023/10/22 13:35:03;;;;;;;7.40;4.05;;;;;;;1.86;79.74;100776.03;10295652;23;20039;-63
2023/10/22 13:40:06;;;;;;;9.60;4.13;;;;;;;1.83;80.01;100769.19;10304946;28;20058;-62
2023/10/22 13:45:09;;;;;;;6.38;4.30;;;;;;;1.87;79.94;100753.34;10317045;28;20062;-62
2023/10/22 13:50:14;;;;;;;7.53;4.50;;;;;;;1.86;79.71;100752.50;10322608;23;20058;-70
2023/10/22 13:55:16;;;;;;;6.45;4.40;;;;;;;1.82;80.22;100735.06;10200047;29;20048;-69
2023/10/22 14:00:18;;;;;;;8.02;5.07;;;;;;;1.85;79.73;100750.03;10203171;29;20047;-68
2023/10/22 14:05:20;;;;;;;5.78;4.32;;;;;;;1.78;80.04;100744.69;10220131;23;20047;-67
2023/10/22 14:10:22;;;;;;;7.68;4.47;;;;;;;1.86;80.00;100741.69;10236584;29;20055;-66
2023/10/22 14:15:25;;;;;;;7.93;5.00;;;;;;;1.74;80.14;100735.34;10237131;29;20514;-67
2023/10/22 14:20:27;;;;;;;10.05;5.55;;;;;;;1.67;80.79;100734.56;10248415;23;20039;-69
2023/10/22 14:25:29;;;;;;;7.65;4.90;;;;;;;1.66;81.05;100738.31;10237916;29;20404;-70
2023/10/22 14:30:32;;;;;;;10.57;5.20;;;;;;;1.63;80.90;100736.06;10238235;29;20039;-67
2023/10/22 14:35:34;;;;;;;8.10;5.60;;;;;;;1.60;81.05;100725.69;10237224;29;20043;-70
2023/10/22 14:40:40;;;;;;;10.10;5.50;;;;;;;1.60;81.02;100737.34;10235036;29;20044;-68
2023/10/22 14:45:42;;;;;;;8.98;4.82;;;;;;;1.61;81.29;100732.75;10264233;23;20058;-65
2023/10/22 14:50:55;;;;;;;9.05;5.57;;;;;;;1.57;81.18;100743.19;10276184;29;20039;-64
2023/10/22 14:56:01;;;;;;;12.13;5.90;;;;;;;1.54;80.99;100730.06;10277139;28;20035;-66
2023/10/22 15:01:04;;;;;;;7.57;4.70;;;;;;;1.52;81.82;100727.59;10268421;28;20052;-62
2023/10/22 15:06:06;;;;;;;9.45;6.00;;;;;;;1.49;81.23;100736.16;10272699;28;20057;-64
2023/10/22 15:11:33;;;;;;;12.75;5.70;;;;;;;1.41;81.82;100724.78;10279434;28;20039;-63
2023/10/22 15:16:35;;;;;;;9.80;5.50;;;;;;;1.42;81.65;100721.03;10078734;29;20060;-73
2023/10/22 15:21:38;;;;;;;10.73;5.35;;;;;;;1.41;81.60;100720.22;10079534;29;20052;-73
2023/10/22 15:26:40;;;;;;;7.20;4.93;;;;;;;1.41;81.75;100709.41;10096548;23;20060;-69
2023/10/22 15:31:43;;;;;;;6.88;4.53;;;;;;;1.36;81.74;100714.59;10243849;29;20039;-70
2023/10/22 15:36:45;;;;;;;8.43;4.65;;;;;;;1.33;82.08;100693.44;10259134;28;20430;-70
2023/10/22 15:41:47;;;;;;;8.25;4.28;;;;;;;1.27;82.44;100697.00;10265018;23;20050;-73
2023/10/22 15:46:50;;;;;;;7.68;4.45;;;;;;;1.31;82.42;100705.50;10319352;28;20094;-72
2023/10/22 15:51:52;;;;;;;5.85;4.25;;;;;;;1.30;82.96;100701.97;10294187;28;20418;-71
2023/10/22 15:56:54;;;;;;;7.03;3.72;;;;;;;1.31;82.49;100687.41;10310819;23;20051;-71
2023/10/22 16:01:57;;;;;;;12.70;6.53;;;;;;;1.36;82.72;100687.56;10273002;28;20046;-75
2023/10/22 16:06:59;;;;;;;5.32;3.72;;;;;;;1.25;82.72;100695.59;10274641;28;20035;-75
2023/10/22 16:12:01;;;;;;;7.28;4.32;;;;;;;1.22;83.68;100682.50;10277198;29;20039;-76
2023/10/22 16:17:04;;;;;;;5.68;4.15;;;;;;;1.19;84.27;100689.97;10277733;28;20499;-78
2023/10/22 16:22:06;;;;;;;5.90;3.95;;;;;;;1.11;84.63;100682.16;10283066;28;20054;-75
2023/10/22 16:27:08;;;;;;;6.47;4.13;;;;;;;1.14;84.91;100678.19;10302308;23;20584;-68
2023/10/22 16:32:11;;;;;;;7.50;4.25;;;;;;;1.22;84.77;100669.81;10322958;28;20042;-69
2023/10/22 16:37:13;;;;;;;7.85;4.07;;;;;;;1.17;84.50;100658.81;10265156;29;20507;-70
2023/10/22 16:42:15;;;;;;;6.03;3.97;;;;;;;1.16;84.61;100662.56;10283035;28;20486;-69
2023/10/22 16:47:17;;;;;;;6.90;4.00;;;;;;;1.19;84.93;100656.72;10247619;28;20039;-69
2023/10/22 16:52:20;;;;;;;6.45;3.97;;;;;;;1.26;84.85;100651.28;10282613;28;20054;-68
2023/10/22 16:57:22;;;;;;;8.70;4.15;;;;;;;1.26;85.12;100652.13;10265096;29;20054;-69
2023/10/22 17:02:24;;;;;;;8.30;4.40;;;;;;;1.31;85.27;100657.69;10274178;28;20050;-69
2023/10/22 17:07:26;;;;;;;9.68;4.57;;;;;;;1.31;85.33;100649.56;10281583;29;20047;-68
2023/10/22 17:12:28;;;;;;;8.85;4.75;;;;;;;1.33;85.20;100641.25;10290171;28;20498;-69
2023/10/22 17:17:34;;;;;;;6.93;4.25;;;;;;;1.37;85.65;100653.25;10282191;28;20430;-69
2023/10/22 17:22:36;;;;;;;7.25;4.10;;;;;;;1.36;85.52;100636.22;10261528;28;20035;-68
2023/10/22 17:27:39;;;;;;;5.68;3.78;;;;;;;1.39;86.43;100637.63;10298073;28;20461;-67
2023/10/22 17:32:41;;;;;;;6.78;4.10;;;;;;;1.33;87.04;100635.84;10296211;28;20035;-67
2023/10/22 17:37:43;;;;;;;6.90;4.32;;;;;;;1.32;86.83;100636.88;10284059;28;20043;-66
2023/10/22 17:42:45;;;;;;;7.63;4.50;;;;;;;1.41;87.29;100633.69;10268371;29;20042;-68
2023/10/22 17:47:48;;;;;;;6.88;4.03;;;;;;;1.40;87.39;100623.09;10255392;28;20050;-67
2023/10/22 17:52:53;;;;;;;8.02;4.85;;;;;;;1.39;87.72;100630.38;10244298;28;20423;-67
2023/10/22 17:57:56;;;;;;;9.23;4.40;;;;;;;1.35;87.48;100618.34;10281098;28;20068;-68
2023/10/22 18:02:58;;;;;;;13.23;5.75;;;;;;;1.34;88.56;100608.56;10247858;28;20042;-67
2023/10/22 18:08:00;;;;;;;8.77;4.43;;;;;;;1.25;88.63;100604.50;10301126;28;20418;-69
2023/10/22 18:13:03;;;;;;;9.55;4.30;;;;;;;1.22;90.48;100599.56;10277374;28;20534;-67
2023/10/22 18:18:06;;;;;;;7.75;4.50;;;;;;;1.20;90.82;100588.09;10265186;28;20039;-68
2023/10/22 18:23:08;;;;;;;9.43;4.75;;;;;;;1.22;91.42;100586.03;10278962;28;20062;-67
2023/10/22 18:28:11;;;;;;;7.38;4.63;;;;;;;1.19;92.01;100587.28;10227519;28;20055;-67
2023/10/22 18:33:14;;;;;;;8.90;4.22;;;;;;;1.18;92.77;100582.09;10251116;28;20038;-66
2023/10/22 18:38:16;;;;;;;8.95;4.65;;;;;;;1.19;93.42;100572.94;10281259;28;20035;-65
2023/10/22 18:43:19;;;;;;;8.25;4.65;;;;;;;1.22;93.47;100563.59;10266413;28;20043;-67
2023/10/22 18:48:33;;;;;;;7.03;4.85;;;;;;;1.14;93.74;100561.97;10250271;28;20049;-68
2023/10/22 18:53:51;;;;;;;8.63;4.82;;;;;;;1.08;94.57;100552.06;10276683;28;20096;-66
2023/10/22 18:58:54;;;;;;;10.90;4.82;;;;;;;1.17;94.60;100542.59;10277697;28;20125;-67
2023/10/22 19:03:59;;;;;;;10.30;5.10;;;;;;;1.16;94.52;100546.38;10249275;29;20569;-69
2023/10/22 19:09:05;;;;;;;7.55;4.05;;;;;;;1.23;94.65;100547.16;10262596;28;20043;-68
2023/10/22 19:14:07;;;;;;;6.88;4.07;;;;;;;1.19;94.29;100532.41;10240388;28;20042;-69
2023/10/22 19:19:10;;;;;;;9.52;4.78;;;;;;;1.21;94.70;100527.59;10266519;29;20039;-68
2023/10/22 19:24:13;;;;;;;6.15;4.53;;;;;;;1.18;94.45;100530.75;10277410;28;20066;-68
2023/10/22 19:29:15;;;;;;;9.07;4.68;;;;;;;1.11;94.78;100525.41;10283410;28;20053;-68
2023/10/22 19:34:17;;;;;;;8.20;4.47;;;;;;;1.17;95.15;100524.50;10265763;29;20047;-68
2023/10/22 19:39:20;;;;;;;6.70;4.55;;;;;;;1.24;94.72;100531.75;10272080;28;20058;-67
2023/10/22 19:44:22;;;;;;;8.95;5.38;;;;;;;1.26;95.26;100527.78;10272429;28;20457;-68
2023/10/22 19:49:24;;;;;;;10.40;4.97;;;;;;;1.27;94.61;100524.03;10265391;28;20396;-68
2023/10/22 19:54:26;;;;;;;9.32;5.22;;;;;;;1.40;95.11;100514.97;10279543;28;20043;-68
2023/10/22 19:59:29;;;;;;;8.55;5.20;;;;;;;1.41;94.38;100513.91;10287515;28;20042;-68
2023/10/22 20:04:34;;;;;;;12.90;5.13;;;;;;;1.42;94.51;100508.28;10301698;28;20043;-68
2023/10/22 20:09:36;;;;;;;7.57;4.57;;;;;;;1.41;93.67;100501.22;10279078;28;20053;-67
2023/10/22 20:14:39;;;;;;;9.43;5.00;;;;;;;1.42;93.99;100494.75;10270187;29;20035;-67
2023/10/22 20:19:42;;;;;;;9.38;5.13;;;;;;;1.42;94.32;100492.06;10262026;28;20050;-67
2023/10/22 20:24:44;;;;;;;10.80;5.00;;;;;;;1.49;93.90;100489.25;10265614;28;20521;-68
2023/10/22 20:29:47;;;;;;;9.80;5.35;;;;;;;1.56;93.85;100475.66;10284675;29;20058;-68
2023/10/22 20:34:49;;;;;;;9.07;5.22;;;;;;;1.56;93.41;100475.66;10277244;29;20039;-67
2023/10/22 20:39:51;;;;;;;11.23;5.55;;;;;;;1.63;94.00;100482.66;10280720;28;20082;-68
2023/10/22 20:44:57;;;;;;;11.88;5.82;;;;;;;1.67;93.81;100483.03;10265322;28;20086;-67
2023/10/22 20:50:01;;;;;;;9.52;5.60;;;;;;;1.66;93.25;100479.50;10290304;28;20055;-68
2023/10/22 20:55:11;;;;;;;11.50;5.47;;;;;;;1.65;93.52;100474.31;10256868;28;20296;-70
2023/10/22 21:00:13;;;;;;;9.85;5.55;;;;;;;1.58;93.45;100477.09;10246035;29;20058;-67
2023/10/22 21:05:16;;;;;;;9.13;5.45;;;;;;;1.58;93.49;100465.47;10269905;28;20926;-68
2023/10/22 21:10:18;;;;;;;11.63;5.57;;;;;;;1.56;93.96;100454.03;10272184;28;20041;-68
2023/10/22 21:15:20;;;;;;;12.18;6.20;;;;;;;1.52;93.49;100454.47;10294383;28;20054;-67
2023/10/22 21:20:22;;;;;;;10.68;6.03;;;;;;;1.48;94.18;100449.75;10289757;28;20070;-67
2023/10/22 21:25:25;;;;;;;12.70;6.38;;;;;;;1.54;93.90;100445.31;10256049;28;20050;-68
2023/10/22 21:30:27;;;;;;;13.32;6.13;;;;;;;1.45;94.16;100448.34;10263163;28;20051;-67
2023/10/22 21:35:29;;;;;;;11.18;6.00;;;;;;;1.46;94.46;100446.47;10246730;28;20042;-68
2023/10/22 21:40:32;;;;;;;12.38;6.97;;;;;;;1.40;94.75;100437.38;10266038;28;20039;-69
2023/10/22 21:45:34;;;;;;;12.18;6.80;;;;;;;1.38;95.04;100434.06;10273715;28;20445;-66
2023/10/22 21:50:36;;;;;;;19.35;7.43;;;;;;;1.32;95.03;100434.97;10274269;28;20031;-66
2023/10/22 21:55:38;;;;;;;12.95;6.85;;;;;;;1.36;95.30;100419.94;10271218;28;20043;-65
2023/10/22 22:00:41;;;;;;;14.63;6.97;;;;;;;1.36;95.46;100421.81;10267957;28;20034;-65
2023/10/22 22:05:43;;;;;;;15.80;7.32;;;;;;;1.37;95.78;100408.06;10282182;28;20046;-65
2023/10/22 22:10:45;;;;;;;14.68;7.13;;;;;;;1.38;95.56;100412.44;10276078;29;20039;-65
2023/10/22 22:15:47;;;;;;;13.52;6.80;;;;;;;1.35;95.97;100407.47;10291373;28;20035;-65
2023/10/22 22:20:49;;;;;;;15.20;6.47;;;;;;;1.35;96.24;100393.97;10282617;28;20035;-64
2023/10/22 22:25:51;;;;;;;12.32;6.05;;;;;;;1.35;96.58;100393.97;10262455;29;20061;-65
2023/10/22 22:30:54;;;;;;;12.07;6.78;;;;;;;1.43;96.83;100393.66;10280564;29;20062;-65
2023/10/22 22:35:56;;;;;;;13.15;6.88;;;;;;;1.39;96.72;100397.03;10270725;28;20408;-65
2023/10/22 22:40:58;;;;;;;14.45;6.97;;;;;;;1.42;96.53;100396.59;10259394;28;20046;-65
2023/10/22 22:46:00;;;;;;;15.00;7.90;;;;;;;1.39;96.99;100392.47;10277093;28;20043;-66
2023/10/22 22:51:02;;;;;;;12.20;7.22;;;;;;;1.38;97.06;100387.28;10263195;29;20046;-65
2023/10/22 22:56:05;;;;;;;14.45;7.30;;;;;;;1.39;97.27;100386.22;10281151;28;20034;-67
2023/10/22 23:01:07;;;;;;;12.80;6.13;;;;;;;1.43;97.50;100377.44;10283962;28;20046;-67
2023/10/22 23:06:09;;;;;;;12.80;6.70;;;;;;;1.33;98.21;100379.84;10268894;28;20426;-67
2023/10/22 23:11:12;;;;;;;13.27;5.70;;;;;;;1.29;98.35;100377.84;10284411;28;20043;-67
2023/10/22 23:16:14;;;;;;;11.30;6.35;;;;;;;1.26;98.30;100376.41;10279792;28;20064;-67
2023/10/22 23:21:16;;;;;;;9.63;5.65;;;;;;;1.24;98.52;100370.41;10282320;28;20451;-67
2023/10/22 23:26:18;;;;;;;8.80;4.75;;;;;;;1.26;98.72;100364.78;10266126;28;20112;-67